sensor_id;sensor_type;location;lat;lon;timestamp;pressure;altitude;pressure_sealevel;temperature;humidity
78121;BME280;67585;44.802;10.332;2023-07-13T00:02:21;100814.47;;;27.96;51.46
78121;BME280;67585;44.802;10.332;2023-07-13T00:04:47;100787.16;;;27.71;51.19
78121;BME280;67585;44.802;10.332;2023-07-13T00:07:12;100796.22;;;27.91;50.34
78121;BME280;67585;44.802;10.332;2023-07-13T00:09:39;100776.06;;;27.68;50.25
78121;BME280;67585;44.802;10.332;2023-07-13T00:12:22;100771.44;;;27.76;50.41
78121;BME280;67585;44.802;10.332;2023-07-13T00:14:48;100787.38;;;27.82;49.83
78121;BME280;67585;44.802;10.332;2023-07-13T00:17:14;100769.13;;;27.81;49.05
78121;BME280;67585;44.802;10.332;2023-07-13T00:19:40;100773.72;;;27.70;49.72
78121;BME280;67585;44.802;10.332;2023-07-13T00:22:05;100784.81;;;27.97;48.79
78121;BME280;67585;44.802;10.332;2023-07-13T00:24:30;100777.22;;;27.67;48.68
78121;BME280;67585;44.802;10.332;2023-07-13T00:26:56;100736.25;;;27.26;48.51
78121;BME280;67585;44.802;10.332;2023-07-13T00:29:21;100760.97;;;27.39;48.38
78121;BME280;67585;44.802;10.332;2023-07-13T00:31:47;100738.97;;;27.03;48.33
78121;BME280;67585;44.802;10.332;2023-07-13T00:34:12;100752.63;;;27.16;48.17
78121;BME280;67585;44.802;10.332;2023-07-13T00:36:38;100744.63;;;27.11;48.69
78121;BME280;67585;44.802;10.332;2023-07-13T00:39:03;100728.78;;;26.84;48.84
78121;BME280;67585;44.802;10.332;2023-07-13T00:41:29;100736.22;;;26.80;48.22
78121;BME280;67585;44.802;10.332;2023-07-13T00:43:55;100716.06;;;26.80;48.22
78121;BME280;67585;44.802;10.332;2023-07-13T00:46:26;100728.00;;;26.64;48.76
78121;BME280;67585;44.802;10.332;2023-07-13T00:48:53;100727.97;;;26.84;48.61
78121;BME280;67585;44.802;10.332;2023-07-13T00:51:43;100703.47;;;27.05;47.90
78121;BME280;67585;44.802;10.332;2023-07-13T00:54:15;100687.19;;;27.23;48.46
78121;BME280;67585;44.802;10.332;2023-07-13T00:56:43;100647.81;;;26.84;47.64
78121;BME280;67585;44.802;10.332;2023-07-13T00:59:11;100675.50;;;27.11;47.82
78121;BME280;67585;44.802;10.332;2023-07-13T01:01:37;100661.19;;;27.05;47.93
78121;BME280;67585;44.802;10.332;2023-07-13T01:04:04;100674.66;;;26.83;48.16
78121;BME280;67585;44.802;10.332;2023-07-13T01:06:36;100681.94;;;26.72;48.53
78121;BME280;67585;44.802;10.332;2023-07-13T01:09:03;100684.06;;;26.79;48.62
78121;BME280;67585;44.802;10.332;2023-07-13T01:11:28;100672.03;;;26.29;49.42
78121;BME280;67585;44.802;10.332;2023-07-13T01:13:54;100698.03;;;26.47;49.34
78121;BME280;67585;44.802;10.332;2023-07-13T01:16:26;100698.22;;;26.54;49.61
78121;BME280;67585;44.802;10.332;2023-07-13T01:18:52;100683.81;;;26.26;50.98
78121;BME280;67585;44.802;10.332;2023-07-13T01:21:19;100656.47;;;26.40;50.07
78121;BME280;67585;44.802;10.332;2023-07-13T01:23:45;100670.31;;;26.20;50.56
78121;BME280;67585;44.802;10.332;2023-07-13T01:26:11;100688.47;;;26.41;50.08
78121;BME280;67585;44.802;10.332;2023-07-13T01:28:37;100682.69;;;26.50;50.26
78121;BME280;67585;44.802;10.332;2023-07-13T01:31:04;100667.88;;;26.38;50.94
78121;BME280;67585;44.802;10.332;2023-07-13T01:33:29;100651.53;;;26.30;50.49
78121;BME280;67585;44.802;10.332;2023-07-13T01:35:55;100669.94;;;26.22;51.24
78121;BME280;67585;44.802;10.332;2023-07-13T01:38:23;100648.34;;;26.08;50.93
78121;BME280;67585;44.802;10.332;2023-07-13T01:40:50;100656.78;;;26.15;51.46
78121;BME280;67585;44.802;10.332;2023-07-13T01:43:16;100649.09;;;26.25;50.99
78121;BME280;67585;44.802;10.332;2023-07-13T01:45:42;100650.31;;;26.27;50.52
78121;BME280;67585;44.802;10.332;2023-07-13T01:48:09;100636.94;;;26.29;49.59
78121;BME280;67585;44.802;10.332;2023-07-13T01:50:34;100657.69;;;26.62;49.41
78121;BME280;67585;44.802;10.332;2023-07-13T01:53:00;100653.13;;;26.31;50.12
78121;BME280;67585;44.802;10.332;2023-07-13T01:55:27;100631.13;;;26.34;50.20
78121;BME280;67585;44.802;10.332;2023-07-13T01:57:53;100650.00;;;26.32;49.87
78121;BME280;67585;44.802;10.332;2023-07-13T02:00:19;100640.41;;;26.26;49.81
78121;BME280;67585;44.802;10.332;2023-07-13T02:02:44;100628.16;;;26.04;50.17
78121;BME280;67585;44.802;10.332;2023-07-13T02:05:10;100637.06;;;26.36;49.90
78121;BME280;67585;44.802;10.332;2023-07-13T02:07:37;100653.66;;;26.56;49.18
78121;BME280;67585;44.802;10.332;2023-07-13T02:10:02;100636.97;;;26.10;50.40
78121;BME280;67585;44.802;10.332;2023-07-13T02:12:28;100620.53;;;26.17;49.79
78121;BME280;67585;44.802;10.332;2023-07-13T02:14:53;100596.13;;;25.99;49.90
78121;BME280;67585;44.802;10.332;2023-07-13T02:17:19;100646.69;;;26.04;50.34
78121;BME280;67585;44.802;10.332;2023-07-13T02:19:44;100649.69;;;25.44;52.02
78121;BME280;67585;44.802;10.332;2023-07-13T02:22:09;100654.03;;;25.80;50.83
78121;BME280;67585;44.802;10.332;2023-07-13T02:24:35;100621.50;;;25.86;50.34
78121;BME280;67585;44.802;10.332;2023-07-13T02:27:00;100659.53;;;26.54;49.67
78121;BME280;67585;44.802;10.332;2023-07-13T02:29:26;100651.03;;;26.43;49.67
78121;BME280;67585;44.802;10.332;2023-07-13T02:31:51;100669.06;;;26.18;50.37
78121;BME280;67585;44.802;10.332;2023-07-13T02:34:16;100673.78;;;26.17;50.15
78121;BME280;67585;44.802;10.332;2023-07-13T02:36:42;100649.69;;;25.95;50.36
78121;BME280;67585;44.802;10.332;2023-07-13T02:39:08;100611.38;;;26.13;50.15
78121;BME280;67585;44.802;10.332;2023-07-13T02:41:33;100603.56;;;26.38;49.29
78121;BME280;67585;44.802;10.332;2023-07-13T02:43:59;100598.81;;;26.15;49.60
78121;BME280;67585;44.802;10.332;2023-07-13T02:46:33;100653.69;;;26.59;48.90
78121;BME280;67585;44.802;10.332;2023-07-13T02:48:59;100662.22;;;26.51;49.19
78121;BME280;67585;44.802;10.332;2023-07-13T02:51:25;100654.00;;;26.77;48.47
78121;BME280;67585;44.802;10.332;2023-07-13T02:53:51;100658.88;;;26.84;48.50
78121;BME280;67585;44.802;10.332;2023-07-13T02:56:21;100681.84;;;26.88;48.28
78121;BME280;67585;44.802;10.332;2023-07-13T02:58:47;100658.34;;;26.55;48.82
78121;BME280;67585;44.802;10.332;2023-07-13T03:01:12;100671.06;;;26.60;49.10
78121;BME280;67585;44.802;10.332;2023-07-13T03:03:38;100663.91;;;26.78;48.78
78121;BME280;67585;44.802;10.332;2023-07-13T03:06:04;100667.53;;;26.82;48.47
78121;BME280;67585;44.802;10.332;2023-07-13T03:08:32;100643.59;;;26.90;48.20
78121;BME280;67585;44.802;10.332;2023-07-13T03:11:07;100639.47;;;26.80;47.70
78121;BME280;67585;44.802;10.332;2023-07-13T03:13:33;100664.78;;;27.28;47.77
78121;BME280;67585;44.802;10.332;2023-07-13T03:15:58;100650.38;;;26.96;48.13
78121;BME280;67585;44.802;10.332;2023-07-13T03:18:27;100681.50;;;26.90;48.38
78121;BME280;67585;44.802;10.332;2023-07-13T03:20:53;100670.84;;;26.92;49.00
78121;BME280;67585;44.802;10.332;2023-07-13T03:23:19;100670.66;;;27.04;48.18
78121;BME280;67585;44.802;10.332;2023-07-13T03:25:44;100675.88;;;26.86;48.59
78121;BME280;67585;44.802;10.332;2023-07-13T03:28:11;100666.22;;;26.53;49.83
78121;BME280;67585;44.802;10.332;2023-07-13T03:30:37;100686.78;;;26.75;49.26
78121;BME280;67585;44.802;10.332;2023-07-13T03:33:02;100688.31;;;26.73;49.49
78121;BME280;67585;44.802;10.332;2023-07-13T03:35:28;100693.44;;;26.74;49.35
78121;BME280;67585;44.802;10.332;2023-07-13T03:37:53;100687.63;;;27.02;48.80
78121;BME280;67585;44.802;10.332;2023-07-13T03:40:19;100697.06;;;27.01;48.40
78121;BME280;67585;44.802;10.332;2023-07-13T03:42:44;100690.69;;;26.74;49.22
78121;BME280;67585;44.802;10.332;2023-07-13T03:45:09;100688.22;;;26.69;49.46
78121;BME280;67585;44.802;10.332;2023-07-13T03:47:35;100701.59;;;26.67;49.46
78121;BME280;67585;44.802;10.332;2023-07-13T03:50:00;100690.38;;;26.79;49.13
78121;BME280;67585;44.802;10.332;2023-07-13T03:52:26;100702.91;;;26.96;48.78
78121;BME280;67585;44.802;10.332;2023-07-13T03:54:51;100714.41;;;26.75;49.96
78121;BME280;67585;44.802;10.332;2023-07-13T03:57:18;100710.28;;;26.46;50.27
78121;BME280;67585;44.802;10.332;2023-07-13T03:59:43;100682.69;;;26.50;50.13
78121;BME280;67585;44.802;10.332;2023-07-13T04:02:09;100707.94;;;26.68;50.22
78121;BME280;67585;44.802;10.332;2023-07-13T04:04:35;100700.25;;;26.57;49.64
78121;BME280;67585;44.802;10.332;2023-07-13T04:07:00;100704.81;;;26.50;50.31
78121;BME280;67585;44.802;10.332;2023-07-13T04:09:26;100715.13;;;26.72;49.76
78121;BME280;67585;44.802;10.332;2023-07-13T04:11:51;100698.84;;;26.48;50.55
78121;BME280;67585;44.802;10.332;2023-07-13T04:14:17;100708.47;;;26.54;50.42
78121;BME280;67585;44.802;10.332;2023-07-13T04:16:43;100727.44;;;26.55;50.22
78121;BME280;67585;44.802;10.332;2023-07-13T04:19:09;100690.38;;;26.17;51.14
78121;BME280;67585;44.802;10.332;2023-07-13T04:21:35;100755.22;;;26.62;50.53
78121;BME280;67585;44.802;10.332;2023-07-13T04:24:01;100707.13;;;26.67;49.95
78121;BME280;67585;44.802;10.332;2023-07-13T04:26:26;100729.47;;;26.78;50.38
78121;BME280;67585;44.802;10.332;2023-07-13T04:28:52;100734.06;;;26.70;50.88
78121;BME280;67585;44.802;10.332;2023-07-13T04:31:17;100727.66;;;26.66;50.75
78121;BME280;67585;44.802;10.332;2023-07-13T04:33:43;100724.22;;;26.73;50.26
78121;BME280;67585;44.802;10.332;2023-07-13T04:36:08;100671.69;;;26.30;50.28
78121;BME280;67585;44.802;10.332;2023-07-13T04:38:35;100685.91;;;26.32;50.59
78121;BME280;67585;44.802;10.332;2023-07-13T04:41:02;100676.69;;;26.63;49.49
78121;BME280;67585;44.802;10.332;2023-07-13T04:43:28;100703.22;;;26.91;49.63
78121;BME280;67585;44.802;10.332;2023-07-13T04:45:54;100684.19;;;26.63;49.70
78121;BME280;67585;44.802;10.332;2023-07-13T04:48:20;100710.78;;;26.71;50.13
78121;BME280;67585;44.802;10.332;2023-07-13T04:50:46;100732.47;;;26.92;49.63
78121;BME280;67585;44.802;10.332;2023-07-13T04:53:13;100727.13;;;27.03;49.03
78121;BME280;67585;44.802;10.332;2023-07-13T04:55:38;100734.84;;;26.71;50.31
78121;BME280;67585;44.802;10.332;2023-07-13T04:58:04;100749.38;;;26.68;50.53
78121;BME280;67585;44.802;10.332;2023-07-13T05:00:30;100746.53;;;26.25;51.42
78121;BME280;67585;44.802;10.332;2023-07-13T05:02:56;100747.63;;;26.20;51.54
78121;BME280;67585;44.802;10.332;2023-07-13T05:05:24;100729.91;;;26.21;51.06
78121;BME280;67585;44.802;10.332;2023-07-13T05:07:50;100736.06;;;26.15;51.80
78121;BME280;67585;44.802;10.332;2023-07-13T05:10:16;100762.63;;;26.39;51.92
78121;BME280;67585;44.802;10.332;2023-07-13T05:12:41;100779.88;;;26.16;52.73
78121;BME280;67585;44.802;10.332;2023-07-13T05:15:07;100779.03;;;26.32;52.71
78121;BME280;67585;44.802;10.332;2023-07-13T05:17:32;100763.00;;;26.02;53.23
78121;BME280;67585;44.802;10.332;2023-07-13T05:19:58;100750.38;;;26.20;52.93
78121;BME280;67585;44.802;10.332;2023-07-13T05:22:23;100757.34;;;25.95;53.73
78121;BME280;67585;44.802;10.332;2023-07-13T05:24:49;100746.06;;;25.68;55.14
78121;BME280;67585;44.802;10.332;2023-07-13T05:27:14;100764.81;;;25.94;54.92
78121;BME280;67585;44.802;10.332;2023-07-13T05:29:40;100755.09;;;26.00;54.67
78121;BME280;67585;44.802;10.332;2023-07-13T05:32:06;100737.47;;;26.25;54.54
78121;BME280;67585;44.802;10.332;2023-07-13T05:34:31;100718.06;;;26.60;53.08
78121;BME280;67585;44.802;10.332;2023-07-13T05:36:57;100726.16;;;26.53;53.87
78121;BME280;67585;44.802;10.332;2023-07-13T05:39:23;100718.13;;;26.05;55.38
78121;BME280;67585;44.802;10.332;2023-07-13T05:41:48;100711.66;;;25.82;55.80
78121;BME280;67585;44.802;10.332;2023-07-13T05:44:13;100736.94;;;26.19;55.01
78121;BME280;67585;44.802;10.332;2023-07-13T05:46:39;100751.88;;;25.98;55.33
78121;BME280;67585;44.802;10.332;2023-07-13T05:49:04;100739.75;;;26.03;55.13
78121;BME280;67585;44.802;10.332;2023-07-13T05:51:29;100734.75;;;25.73;56.08
78121;BME280;67585;44.802;10.332;2023-07-13T05:53:55;100741.28;;;25.85;55.88
78121;BME280;67585;44.802;10.332;2023-07-13T05:56:21;100745.50;;;25.78;55.43
78121;BME280;67585;44.802;10.332;2023-07-13T05:58:48;100727.72;;;25.12;56.81
78121;BME280;67585;44.802;10.332;2023-07-13T06:01:14;100755.84;;;25.50;56.27
78121;BME280;67585;44.802;10.332;2023-07-13T06:03:40;100752.66;;;25.48;56.18
78121;BME280;67585;44.802;10.332;2023-07-13T06:06:08;100730.19;;;25.65;55.27
78121;BME280;67585;44.802;10.332;2023-07-13T06:08:33;100745.84;;;25.93;53.96
78121;BME280;67585;44.802;10.332;2023-07-13T06:11:08;100764.19;;;26.20;54.03
78121;BME280;67585;44.802;10.332;2023-07-13T06:13:35;100753.75;;;26.30;53.67
78121;BME280;67585;44.802;10.332;2023-07-13T06:16:01;100740.56;;;26.04;54.25
78121;BME280;67585;44.802;10.332;2023-07-13T06:18:30;100737.06;;;26.07;55.06
78121;BME280;67585;44.802;10.332;2023-07-13T06:20:55;100752.25;;;25.81;55.51
78121;BME280;67585;44.802;10.332;2023-07-13T06:23:20;100755.28;;;25.92;55.30
78121;BME280;67585;44.802;10.332;2023-07-13T06:25:46;100761.75;;;25.99;55.29
78121;BME280;67585;44.802;10.332;2023-07-13T06:28:11;100754.28;;;26.00;54.52
78121;BME280;67585;44.802;10.332;2023-07-13T06:30:38;100752.63;;;25.95;55.32
78121;BME280;67585;44.802;10.332;2023-07-13T06:33:04;100716.34;;;25.97;55.24
78121;BME280;67585;44.802;10.332;2023-07-13T06:35:29;100694.50;;;25.72;56.09
78121;BME280;67585;44.802;10.332;2023-07-13T06:37:55;100681.75;;;25.84;55.49
78121;BME280;67585;44.802;10.332;2023-07-13T06:40:20;100698.41;;;26.07;54.85
78121;BME280;67585;44.802;10.332;2023-07-13T06:42:45;100712.28;;;25.75;54.94
78121;BME280;67585;44.802;10.332;2023-07-13T06:45:11;100777.81;;;25.62;55.91
78121;BME280;67585;44.802;10.332;2023-07-13T06:47:36;100771.97;;;25.48;55.26
78121;BME280;67585;44.802;10.332;2023-07-13T06:50:01;100821.25;;;25.81;55.10
78121;BME280;67585;44.802;10.332;2023-07-13T06:52:27;100820.72;;;25.59;56.01
78121;BME280;67585;44.802;10.332;2023-07-13T06:54:52;100820.47;;;25.65;56.70
78121;BME280;67585;44.802;10.332;2023-07-13T06:57:18;100787.09;;;25.38;57.04
78121;BME280;67585;44.802;10.332;2023-07-13T06:59:43;100774.28;;;25.30;58.04
78121;BME280;67585;44.802;10.332;2023-07-13T07:02:10;100724.38;;;24.75;58.64
78121;BME280;67585;44.802;10.332;2023-07-13T07:04:36;100730.28;;;24.89;58.77
78121;BME280;67585;44.802;10.332;2023-07-13T07:07:02;100715.56;;;25.29;57.53
78121;BME280;67585;44.802;10.332;2023-07-13T07:09:27;100738.47;;;25.65;57.01
78121;BME280;67585;44.802;10.332;2023-07-13T07:11:55;100734.91;;;25.65;56.83
78121;BME280;67585;44.802;10.332;2023-07-13T07:14:20;100741.06;;;25.58;56.57
78121;BME280;67585;44.802;10.332;2023-07-13T07:16:46;100746.72;;;25.30;58.25
78121;BME280;67585;44.802;10.332;2023-07-13T07:19:11;100745.44;;;25.43;57.28
78121;BME280;67585;44.802;10.332;2023-07-13T07:21:36;100761.56;;;25.25;58.19
78121;BME280;67585;44.802;10.332;2023-07-13T07:24:02;100750.28;;;25.02;58.40
78121;BME280;67585;44.802;10.332;2023-07-13T07:26:29;100791.63;;;25.46;57.91
78121;BME280;67585;44.802;10.332;2023-07-13T07:28:55;100793.94;;;25.60;57.74
78121;BME280;67585;44.802;10.332;2023-07-13T07:31:20;100777.66;;;25.55;57.30
78121;BME280;67585;44.802;10.332;2023-07-13T07:33:45;100766.53;;;25.35;58.41
78121;BME280;67585;44.802;10.332;2023-07-13T07:36:11;100760.41;;;25.42;57.98
78121;BME280;67585;44.802;10.332;2023-07-13T07:38:37;100786.28;;;25.53;57.82
78121;BME280;67585;44.802;10.332;2023-07-13T07:41:03;100743.31;;;25.21;59.03
78121;BME280;67585;44.802;10.332;2023-07-13T07:43:29;100706.91;;;24.83;59.45
78121;BME280;67585;44.802;10.332;2023-07-13T07:45:55;100678.19;;;25.00;58.52
78121;BME280;67585;44.802;10.332;2023-07-13T07:48:20;100717.41;;;25.57;57.59
78121;BME280;67585;44.802;10.332;2023-07-13T07:50:46;100736.25;;;25.71;57.17
78121;BME280;67585;44.802;10.332;2023-07-13T07:53:11;100764.66;;;25.55;58.12
78121;BME280;67585;44.802;10.332;2023-07-13T07:55:38;100763.59;;;25.44;57.93
78121;BME280;67585;44.802;10.332;2023-07-13T07:58:04;100762.78;;;25.59;57.98
78121;BME280;67585;44.802;10.332;2023-07-13T08:00:30;100736.81;;;25.45;58.26
78121;BME280;67585;44.802;10.332;2023-07-13T08:02:57;100742.84;;;25.50;58.28
78121;BME280;67585;44.802;10.332;2023-07-13T08:05:23;100763.50;;;25.56;57.65
78121;BME280;67585;44.802;10.332;2023-07-13T08:07:48;100780.59;;;25.62;57.63
78121;BME280;67585;44.802;10.332;2023-07-13T08:10:13;100745.38;;;25.40;57.70
78121;BME280;67585;44.802;10.332;2023-07-13T08:12:40;100757.16;;;25.72;57.41
78121;BME280;67585;44.802;10.332;2023-07-13T08:15:09;100710.97;;;25.69;56.85
78121;BME280;67585;44.802;10.332;2023-07-13T08:17:35;100695.72;;;25.40;58.00
78121;BME280;67585;44.802;10.332;2023-07-13T08:20:01;100741.28;;;25.18;58.62
78121;BME280;67585;44.802;10.332;2023-07-13T08:22:27;100809.38;;;24.61;60.28
78121;BME280;67585;44.802;10.332;2023-07-13T08:24:52;100884.69;;;25.05;59.71
78121;BME280;67585;44.802;10.332;2023-07-13T08:27:25;100880.88;;;24.69;60.56
78121;BME280;67585;44.802;10.332;2023-07-13T08:29:51;100840.81;;;24.72;60.41
78121;BME280;67585;44.802;10.332;2023-07-13T08:32:17;100804.03;;;25.08;58.99
78121;BME280;67585;44.802;10.332;2023-07-13T08:34:43;100798.25;;;25.13;59.29
78121;BME280;67585;44.802;10.332;2023-07-13T08:37:09;100754.47;;;25.12;59.57
78121;BME280;67585;44.802;10.332;2023-07-13T08:39:34;100788.38;;;25.12;60.77
78121;BME280;67585;44.802;10.332;2023-07-13T08:42:34;100816.09;;;25.04;61.55
78121;BME280;67585;44.802;10.332;2023-07-13T08:45:12;100795.19;;;25.31;61.45
78121;BME280;67585;44.802;10.332;2023-07-13T08:47:42;100750.03;;;25.07;61.67
78121;BME280;67585;44.802;10.332;2023-07-13T08:50:17;100793.91;;;25.12;62.03
78121;BME280;67585;44.802;10.332;2023-07-13T08:52:43;100821.19;;;24.61;63.04
78121;BME280;67585;44.802;10.332;2023-07-13T08:55:18;100850.28;;;24.87;61.54
78121;BME280;67585;44.802;10.332;2023-07-13T08:57:50;100852.91;;;24.95;61.71
78121;BME280;67585;44.802;10.332;2023-07-13T09:00:18;100831.44;;;24.61;62.17
78121;BME280;67585;44.802;10.332;2023-07-13T09:02:56;100828.16;;;24.71;62.09
78121;BME280;67585;44.802;10.332;2023-07-13T09:05:29;100829.88;;;25.32;60.66
78121;BME280;67585;44.802;10.332;2023-07-13T09:08:29;100852.94;;;25.55;60.18
78121;BME280;67585;44.802;10.332;2023-07-13T09:16:16;100878.06;;;25.66;59.19
78121;BME280;67585;44.802;10.332;2023-07-13T09:18:48;100877.34;;;25.69;58.67
78121;BME280;67585;44.802;10.332;2023-07-13T09:23:43;100901.38;;;27.22;55.08
78121;BME280;67585;44.802;10.332;2023-07-13T09:26:18;100897.38;;;27.62;53.67
78121;BME280;67585;44.802;10.332;2023-07-13T09:28:59;100892.72;;;27.47;53.81
78121;BME280;67585;44.802;10.332;2023-07-13T09:31:39;100862.63;;;27.65;52.75
78121;BME280;67585;44.802;10.332;2023-07-13T09:34:11;100860.75;;;27.96;52.08
78121;BME280;67585;44.802;10.332;2023-07-13T09:36:37;100877.28;;;28.15;51.92
78121;BME280;67585;44.802;10.332;2023-07-13T09:39:14;100894.13;;;28.56;50.88
78121;BME280;67585;44.802;10.332;2023-07-13T09:41:50;100883.19;;;28.40;50.41
78121;BME280;67585;44.802;10.332;2023-07-13T09:45:09;100883.88;;;28.90;49.73
78121;BME280;67585;44.802;10.332;2023-07-13T09:47:39;100859.09;;;28.18;50.89
78121;BME280;67585;44.802;10.332;2023-07-13T09:50:15;100870.50;;;28.12;50.54
78121;BME280;67585;44.802;10.332;2023-07-13T09:52:42;100874.47;;;28.68;49.08
78121;BME280;67585;44.802;10.332;2023-07-13T09:55:34;100873.34;;;27.24;52.76
78121;BME280;67585;44.802;10.332;2023-07-13T09:58:21;100866.44;;;28.90;48.20
78121;BME280;67585;44.802;10.332;2023-07-13T10:01:01;100853.34;;;29.61;46.60
78121;BME280;67585;44.802;10.332;2023-07-13T10:03:33;100844.44;;;28.44;47.51
78121;BME280;67585;44.802;10.332;2023-07-13T10:06:20;100835.97;;;28.60;46.88
78121;BME280;67585;44.802;10.332;2023-07-13T10:08:47;100850.47;;;28.23;49.01
78121;BME280;67585;44.802;10.332;2023-07-13T10:11:22;100845.66;;;29.07;46.36
78121;BME280;67585;44.802;10.332;2023-07-13T10:14:02;100855.97;;;29.47;46.34
78121;BME280;67585;44.802;10.332;2023-07-13T10:16:33;100854.28;;;29.35;45.68
78121;BME280;67585;44.802;10.332;2023-07-13T10:19:02;100855.41;;;29.72;45.38
78121;BME280;67585;44.802;10.332;2023-07-13T10:21:44;100847.59;;;30.47;43.29
78121;BME280;67585;44.802;10.332;2023-07-13T10:24:29;100821.38;;;29.00;46.00
78121;BME280;67585;44.802;10.332;2023-07-13T10:27:18;100846.53;;;29.55;44.63
78121;BME280;67585;44.802;10.332;2023-07-13T10:32:14;100843.00;;;28.84;44.91
78121;BME280;67585;44.802;10.332;2023-07-13T10:34:43;100838.53;;;29.50;44.02
78121;BME280;67585;44.802;10.332;2023-07-13T10:37:20;100824.84;;;29.68;43.66
78121;BME280;67585;44.802;10.332;2023-07-13T10:39:48;100829.44;;;30.05;43.67
78121;BME280;67585;44.802;10.332;2023-07-13T10:42:25;100819.34;;;29.75;44.30
78121;BME280;67585;44.802;10.332;2023-07-13T10:44:52;100781.84;;;30.03;43.27
78121;BME280;67585;44.802;10.332;2023-07-13T10:47:18;100802.31;;;30.43;43.38
78121;BME280;67585;44.802;10.332;2023-07-13T10:49:44;100799.97;;;30.52;43.53
78121;BME280;67585;44.802;10.332;2023-07-13T10:52:49;100798.59;;;30.21;44.35
78121;BME280;67585;44.802;10.332;2023-07-13T10:55:41;100786.97;;;30.85;42.82
78121;BME280;67585;44.802;10.332;2023-07-13T10:58:20;100790.16;;;30.94;42.82
78121;BME280;67585;44.802;10.332;2023-07-13T11:03:20;100779.88;;;31.63;41.56
78121;BME280;67585;44.802;10.332;2023-07-13T11:05:52;100769.16;;;31.65;42.04
78121;BME280;67585;44.802;10.332;2023-07-13T11:08:35;100778.63;;;32.18;40.68
78121;BME280;67585;44.802;10.332;2023-07-13T11:21:15;100754.31;;;32.18;40.85
78121;BME280;67585;44.802;10.332;2023-07-13T11:23:44;100745.63;;;31.84;41.79
78121;BME280;67585;44.802;10.332;2023-07-13T11:31:41;100740.47;;;31.86;40.67
78121;BME280;67585;44.802;10.332;2023-07-13T11:34:14;100755.97;;;32.05;41.79
78121;BME280;67585;44.802;10.332;2023-07-13T11:36:43;100752.31;;;32.19;40.44
78121;BME280;67585;44.802;10.332;2023-07-13T11:41:58;100736.53;;;31.62;41.05
78121;BME280;67585;44.802;10.332;2023-07-13T11:44:26;100742.47;;;31.75;41.17
78121;BME280;67585;44.802;10.332;2023-07-13T11:46:57;100745.94;;;32.18;40.85
78121;BME280;67585;44.802;10.332;2023-07-13T11:49:26;100747.59;;;32.05;41.29
78121;BME280;67585;44.802;10.332;2023-07-13T11:51:52;100727.66;;;32.17;41.00
78121;BME280;67585;44.802;10.332;2023-07-13T11:56:54;100696.31;;;30.77;43.25
78121;BME280;67585;44.802;10.332;2023-07-13T11:59:20;100722.63;;;31.58;41.72
78121;BME280;67585;44.802;10.332;2023-07-13T12:01:50;100711.47;;;31.01;42.84
78121;BME280;67585;44.802;10.332;2023-07-13T12:04:24;100715.38;;;31.97;40.80
78121;BME280;67585;44.802;10.332;2023-07-13T12:07:05;100696.53;;;32.26;40.69
78121;BME280;67585;44.802;10.332;2023-07-13T12:09:33;100699.50;;;31.72;41.31
78121;BME280;67585;44.802;10.332;2023-07-13T12:12:01;100610.88;;;31.20;41.79
78121;BME280;67585;44.802;10.332;2023-07-13T12:14:27;100695.66;;;32.40;39.79
78121;BME280;67585;44.802;10.332;2023-07-13T12:16:54;100679.97;;;32.67;39.29
78121;BME280;67585;44.802;10.332;2023-07-13T12:19:26;100689.25;;;32.53;39.97
78121;BME280;67585;44.802;10.332;2023-07-13T12:21:55;100696.16;;;32.90;39.66
78121;BME280;67585;44.802;10.332;2023-07-13T12:24:21;100683.03;;;32.84;39.43
78121;BME280;67585;44.802;10.332;2023-07-13T12:26:59;100676.28;;;32.85;39.72
78121;BME280;67585;44.802;10.332;2023-07-13T12:29:26;100692.78;;;32.61;40.15
78121;BME280;67585;44.802;10.332;2023-07-13T12:31:52;100688.13;;;32.99;40.01
78121;BME280;67585;44.802;10.332;2023-07-13T12:34:21;100690.00;;;32.61;40.20
78121;BME280;67585;44.802;10.332;2023-07-13T12:36:52;100686.69;;;32.07;41.37
78121;BME280;67585;44.802;10.332;2023-07-13T12:39:25;100684.97;;;32.31;41.58
78121;BME280;67585;44.802;10.332;2023-07-13T12:41:52;100658.56;;;32.53;40.28
78121;BME280;67585;44.802;10.332;2023-07-13T12:44:26;100663.06;;;32.29;41.63
78121;BME280;67585;44.802;10.332;2023-07-13T12:47:13;100678.72;;;32.02;42.00
78121;BME280;67585;44.802;10.332;2023-07-13T12:49:47;100675.34;;;32.35;40.80
78121;BME280;67585;44.802;10.332;2023-07-13T12:52:21;100685.25;;;30.91;44.17
78121;BME280;67585;44.802;10.332;2023-07-13T12:54:55;100684.34;;;30.37;45.65
78121;BME280;67585;44.802;10.332;2023-07-13T12:57:22;100682.03;;;30.78;44.44
78121;BME280;67585;44.802;10.332;2023-07-13T12:59:52;100678.47;;;31.39;43.42
78121;BME280;67585;44.802;10.332;2023-07-13T13:02:32;100678.81;;;31.73;42.38
78121;BME280;67585;44.802;10.332;2023-07-13T13:04:59;100689.06;;;31.94;41.79
78121;BME280;67585;44.802;10.332;2023-07-13T13:07:25;100687.59;;;31.64;42.43
78121;BME280;67585;44.802;10.332;2023-07-13T13:09:51;100685.91;;;31.99;41.84
78121;BME280;67585;44.802;10.332;2023-07-13T13:12:19;100660.44;;;31.97;42.36
78121;BME280;67585;44.802;10.332;2023-07-13T13:14:45;100658.59;;;31.40;43.14
78121;BME280;67585;44.802;10.332;2023-07-13T13:17:21;100671.72;;;31.40;43.18
78121;BME280;67585;44.802;10.332;2023-07-13T13:19:50;100672.81;;;31.82;42.70
78121;BME280;67585;44.802;10.332;2023-07-13T13:22:18;100668.06;;;31.75;43.57